createdAt,value
2023-04-27T00:00:03.722Z,42.4
2023-04-27T00:01:04.456Z,42.4
2023-04-27T00:02:05.664Z,42.2
2023-04-27T00:03:06.849Z,42.4
2023-04-27T00:04:07.570Z,42.4
2023-04-27T00:05:08.749Z,42.3
2023-04-27T00:06:09.521Z,42.2
2023-04-27T00:07:10.529Z,42.3
2023-04-27T00:08:11.515Z,42.2
2023-04-27T00:09:18.158Z,42.2
2023-04-27T00:10:19.643Z,42.3
2023-04-27T00:11:20.699Z,42.1
2023-04-27T00:12:21.807Z,42.2
2023-04-27T00:13:22.720Z,41.7
2023-04-27T00:14:23.566Z,42.2
2023-04-27T00:15:24.706Z,42.4
2023-04-27T00:16:25.508Z,42.4
2023-04-27T00:17:26.791Z,42.4
2023-04-27T00:18:27.535Z,42.3
2023-04-27T00:19:28.495Z,42.1
2023-04-27T00:20:29.612Z,42.2
2023-04-27T00:21:30.461Z,42.2
2023-04-27T00:22:31.538Z,42.1
2023-04-27T00:23:32.522Z,42.2
2023-04-27T00:24:33.697Z,42.3
2023-04-27T00:25:34.500Z,42.2
2023-04-27T00:26:36.141Z,42.2
2023-04-27T00:27:37.688Z,42.2
2023-04-27T00:28:38.560Z,42.1
2023-04-27T00:29:39.523Z,42.1
2023-04-27T00:30:40.518Z,42.1
2023-04-27T00:31:41.500Z,42.1
2023-04-27T00:32:42.642Z,42.1
2023-04-27T00:33:43.705Z,42
2023-04-27T00:34:44.541Z,42.1
2023-04-27T00:35:45.675Z,42
2023-04-27T00:36:46.637Z,41.7
2023-04-27T00:37:47.519Z,41.5
2023-04-27T00:38:48.570Z,41.8
2023-04-27T00:39:49.606Z,41.8
2023-04-27T00:40:50.597Z,41.9
2023-04-27T00:41:51.530Z,41.9
2023-04-27T00:42:52.517Z,41.9
2023-04-27T00:43:53.547Z,41.7
2023-04-27T00:44:54.568Z,41.9
2023-04-27T00:45:55.553Z,41.9
2023-04-27T00:46:56.600Z,42
2023-04-27T00:47:57.692Z,42.1
2023-04-27T00:48:58.548Z,42.1
2023-04-27T00:49:59.679Z,42
2023-04-27T00:51:00.766Z,42
2023-04-27T00:52:01.655Z,42
2023-04-27T00:53:02.599Z,42.2
2023-04-27T00:54:03.498Z,42.2
2023-04-27T00:55:04.515Z,42.3
2023-04-27T00:56:05.704Z,42.4
2023-04-27T00:57:06.886Z,42.2
2023-04-27T00:58:07.559Z,42.1
2023-04-27T00:59:08.626Z,42.3
2023-04-27T01:00:09.579Z,42.4
2023-04-27T01:01:10.509Z,42.3
2023-04-27T01:02:11.484Z,42.3
2023-04-27T01:03:12.644Z,42.3
2023-04-27T01:04:14.226Z,42.4
2023-04-27T01:05:15.916Z,42.4
2023-04-27T01:06:17.578Z,42.4
2023-04-27T01:07:18.522Z,42.3
2023-04-27T01:08:19.545Z,41.7
2023-04-27T01:09:20.679Z,42.2
2023-04-27T01:10:21.818Z,42.3
2023-04-27T01:11:22.671Z,42.5
2023-04-27T01:12:23.665Z,42.6
2023-04-27T01:13:24.565Z,42.5
2023-04-27T01:14:25.484Z,42.5
2023-04-27T01:15:26.596Z,42.5
2023-04-27T01:16:27.576Z,42.4
2023-04-27T01:17:28.810Z,42.6
2023-04-27T01:18:29.715Z,42.7
2023-04-27T01:19:30.473Z,42.7
2023-04-27T01:20:31.619Z,42.7
2023-04-27T01:21:32.522Z,42.6
2023-04-27T01:22:33.619Z,42.8
2023-04-27T01:23:34.547Z,43
2023-04-27T01:24:36.178Z,43
2023-04-27T01:25:37.657Z,43.1
2023-04-27T01:26:38.615Z,43.1
2023-04-27T01:27:39.539Z,43.3
2023-04-27T01:28:40.565Z,43.8
2023-04-27T01:29:41.497Z,44
2023-04-27T01:30:42.575Z,44.1
2023-04-27T01:31:43.622Z,43.9
2023-04-27T01:32:44.586Z,43.8
2023-04-27T01:33:45.534Z,43.9
2023-04-27T01:34:46.595Z,44.1
2023-04-27T01:35:47.522Z,44.1
2023-04-27T01:36:48.569Z,44.2
2023-04-27T01:37:49.571Z,44.3
2023-04-27T01:38:50.636Z,44.4
2023-04-27T01:39:51.850Z,44.5
2023-04-27T01:40:52.737Z,44.2
2023-04-27T01:41:53.579Z,44.6
2023-04-27T01:42:54.598Z,44.5
2023-04-27T01:43:55.579Z,44.8
2023-04-27T01:44:56.599Z,45
2023-04-27T01:45:57.670Z,45
2023-04-27T01:46:58.618Z,44.9
2023-04-27T01:47:59.599Z,44.9
2023-04-27T01:49:00.578Z,44.7
2023-04-27T01:50:01.841Z,44.7
2023-04-27T01:51:02.528Z,44.4
2023-04-27T01:52:03.583Z,44.4
2023-04-27T01:53:04.621Z,44.2
2023-04-27T01:54:05.585Z,44.1
2023-04-27T01:55:06.687Z,44.2
2023-04-27T01:56:07.524Z,44.2
2023-04-27T01:57:08.608Z,44.5
2023-04-27T01:58:09.548Z,45
2023-04-27T01:59:10.599Z,45.3
2023-04-27T02:00:11.650Z,45.4
2023-04-27T02:01:12.702Z,45.3
2023-04-27T02:02:13.690Z,45.1
2023-04-27T02:03:14.689Z,45.4
2023-04-27T02:04:15.902Z,45.6
2023-04-27T02:05:16.681Z,45.9
2023-04-27T02:06:17.796Z,45.9
2023-04-27T02:07:18.570Z,46.1
2023-04-27T02:08:19.620Z,46.2
2023-04-27T02:09:20.643Z,46.1
2023-04-27T02:10:21.781Z,46.1
2023-04-27T02:11:22.839Z,46.2
2023-04-27T02:12:23.662Z,46.2
2023-04-27T02:13:24.644Z,46.2
2023-04-27T02:14:25.564Z,46.2
2023-04-27T02:15:26.601Z,46.1
2023-04-27T02:16:27.620Z,46.2
2023-04-27T02:17:28.629Z,46.3
2023-04-27T02:18:29.559Z,46.2
2023-04-27T02:19:30.520Z,46.1
2023-04-27T02:20:31.528Z,46.1
2023-04-27T02:21:32.578Z,46.4
2023-04-27T02:22:33.558Z,46.2
2023-04-27T02:23:34.600Z,46.4
2023-04-27T02:24:36.339Z,46.6
2023-04-27T02:25:37.589Z,45.8
2023-04-27T02:26:38.622Z,46.7
2023-04-27T02:27:39.638Z,47
2023-04-27T02:28:40.601Z,47
2023-04-27T02:29:41.647Z,46.9
2023-04-27T02:30:42.776Z,47
2023-04-27T02:31:43.622Z,46.9
2023-04-27T02:32:44.696Z,47.2
2023-04-27T02:33:45.547Z,47.4
2023-04-27T02:34:46.767Z,47.5
2023-04-27T02:35:47.565Z,47.4
2023-04-27T02:36:48.747Z,47.4
2023-04-27T02:37:49.641Z,47.4
2023-04-27T02:38:50.546Z,47.3
2023-04-27T02:39:51.628Z,47.4
2023-04-27T02:40:52.607Z,47.3
2023-04-27T02:41:53.607Z,47.4
2023-04-27T02:42:54.621Z,47.4
2023-04-27T02:43:55.607Z,47.3
2023-04-27T02:44:56.886Z,47.3
2023-04-27T02:45:57.698Z,47.4
2023-04-27T02:46:58.682Z,47.4
2023-04-27T02:47:59.699Z,47.6
2023-04-27T02:49:00.598Z,47.6
2023-04-27T02:50:01.688Z,47.5
2023-04-27T02:51:02.663Z,47
2023-04-27T02:52:03.718Z,47.5
2023-04-27T02:53:04.616Z,47.8
2023-04-27T02:54:05.615Z,48
2023-04-27T02:55:06.757Z,48.1
2023-04-27T02:56:07.605Z,48
2023-04-27T02:57:08.717Z,48.1
2023-04-27T02:58:09.604Z,48.1
2023-04-27T02:59:10.617Z,47.7
2023-04-27T03:00:11.820Z,48
2023-04-27T03:01:12.616Z,48
2023-04-27T03:02:13.736Z,48.1
2023-04-27T03:03:14.805Z,48.2
2023-04-27T03:04:15.789Z,47.8
2023-04-27T03:05:16.684Z,48.1
2023-04-27T03:06:17.797Z,48.2
2023-04-27T03:07:18.856Z,48.2
2023-04-27T03:08:19.721Z,48.5
2023-04-27T03:09:20.620Z,48.5
2023-04-27T03:10:21.755Z,48.5
2023-04-27T03:11:22.758Z,48.6
2023-04-27T03:12:23.639Z,48.6
2023-04-27T03:13:24.614Z,48.7
2023-04-27T03:14:25.982Z,49.2
2023-04-27T03:15:26.729Z,49.3
2023-04-27T03:16:27.610Z,49.2
2023-04-27T03:17:28.794Z,49.1
2023-04-27T03:18:29.595Z,48.9
2023-04-27T03:19:30.601Z,49
2023-04-27T03:20:31.636Z,49
2023-04-27T03:21:32.541Z,48.9
2023-04-27T03:22:33.544Z,48.8
2023-04-27T03:23:34.536Z,48.8
2023-04-27T03:24:35.593Z,48.7
2023-04-27T03:25:36.594Z,48.6
2023-04-27T03:26:37.728Z,48.7
2023-04-27T03:27:38.654Z,48.8
2023-04-27T03:28:39.664Z,48.9
2023-04-27T03:29:40.754Z,48.9
2023-04-27T03:30:41.599Z,48.8
2023-04-27T03:31:42.875Z,48.7
2023-04-27T03:32:44.974Z,48.6
2023-04-27T03:33:44.633Z,48.5
2023-04-27T03:34:45.599Z,48.5
2023-04-27T03:35:46.635Z,48.7
2023-04-27T03:36:48.204Z,48.8
2023-04-27T03:37:49.642Z,48.5
2023-04-27T03:38:50.669Z,48.7
2023-04-27T03:39:51.677Z,48.5
2023-04-27T03:40:52.843Z,48.6
2023-04-27T03:41:53.689Z,48.6
2023-04-27T03:42:54.855Z,48.4
2023-04-27T03:43:55.627Z,48.2
2023-04-27T03:44:56.682Z,48.3
2023-04-27T03:45:58.266Z,48.4
2023-04-27T03:46:59.780Z,48.5
2023-04-27T03:48:01.054Z,48.6
2023-04-27T03:49:02.600Z,48.6
2023-04-27T03:50:03.667Z,48.6
2023-04-27T03:51:04.636Z,48.5
2023-04-27T03:52:05.694Z,48.4
2023-04-27T03:53:06.576Z,48.2
2023-04-27T03:54:07.576Z,48.4
2023-04-27T03:55:08.652Z,48.7
2023-04-27T03:56:09.598Z,48.9
2023-04-27T03:57:10.647Z,48.8
2023-04-27T03:58:11.824Z,48.6
2023-04-27T03:59:12.922Z,48.5
2023-04-27T04:00:13.582Z,48.1
2023-04-27T04:01:14.577Z,47.6
2023-04-27T04:02:15.642Z,47.4
2023-04-27T04:03:16.898Z,47.1
2023-04-27T04:04:17.913Z,46.9
2023-04-27T04:05:18.832Z,46.6
2023-04-27T04:06:19.575Z,46.3
2023-04-27T04:07:20.628Z,46.3
2023-04-27T04:08:21.636Z,46.1
2023-04-27T04:09:23.892Z,46.2
2023-04-27T04:10:23.984Z,45.8
2023-04-27T04:11:25.583Z,45.8
2023-04-27T04:12:26.640Z,45.1
2023-04-27T04:13:27.638Z,45.7
2023-04-27T04:14:28.657Z,45.9
2023-04-27T04:15:29.682Z,45.5
2023-04-27T04:16:30.595Z,45.2
2023-04-27T04:17:31.719Z,44.9
2023-04-27T04:18:32.604Z,44.8
2023-04-27T04:19:34.191Z,44.8
2023-04-27T04:20:35.903Z,44.7
2023-04-27T04:21:36.616Z,44.9
2023-04-27T04:22:37.620Z,44.7
2023-04-27T04:23:39.384Z,44.6
2023-04-27T04:24:40.855Z,44.6
2023-04-27T04:25:41.568Z,44.6
2023-04-27T04:26:42.644Z,44.7
2023-04-27T04:27:43.943Z,44.6
2023-04-27T04:28:44.624Z,44.6
2023-04-27T04:29:45.665Z,44.6
2023-04-27T04:30:46.894Z,44.5
2023-04-27T04:31:47.785Z,44.4
2023-04-27T04:32:48.917Z,44.3
2023-04-27T04:33:49.695Z,44
2023-04-27T04:34:50.625Z,44
2023-04-27T04:35:51.580Z,44
2023-04-27T04:36:52.775Z,43.9
2023-04-27T04:37:53.655Z,43.6
2023-04-27T04:38:54.618Z,43.7
2023-04-27T04:39:55.576Z,43.7
2023-04-27T04:40:57.694Z,43.8
2023-04-27T04:41:58.808Z,43.8
2023-04-27T04:42:59.730Z,43.7
2023-04-27T04:44:01.140Z,43.7
2023-04-27T04:45:03.363Z,43.7
2023-04-27T04:46:05.300Z,43.7
2023-04-27T04:47:06.684Z,43.8
2023-04-27T04:48:07.795Z,43.8
2023-04-27T04:49:08.770Z,43.9
2023-04-27T04:50:09.648Z,43.3
2023-04-27T04:51:10.675Z,43.9
2023-04-27T04:52:11.654Z,44
2023-04-27T04:53:12.685Z,43.6
2023-04-27T04:54:13.618Z,43.9
2023-04-27T04:55:14.681Z,43.9
2023-04-27T04:56:16.556Z,43.7
2023-04-27T04:57:17.763Z,43.7
2023-04-27T04:58:18.828Z,43.5
2023-04-27T04:59:20.074Z,43.6
2023-04-27T05:00:22.728Z,43.8
2023-04-27T05:01:23.845Z,43.9
2023-04-27T05:02:24.749Z,43.4
2023-04-27T05:03:25.878Z,43.1
2023-04-27T05:04:26.979Z,43.3
2023-04-27T05:05:27.626Z,43.1
2023-04-27T05:06:28.615Z,42.9
2023-04-27T05:07:30.249Z,43
2023-04-27T05:08:31.756Z,43.3
2023-04-27T05:09:32.651Z,43.7
2023-04-27T05:10:33.775Z,44.2
2023-04-27T05:11:34.840Z,44.3
2023-04-27T05:12:35.713Z,44.2
2023-04-27T05:13:37.360Z,43.8
2023-04-27T05:14:38.776Z,43.8
2023-04-27T05:15:42.471Z,43.9
2023-04-27T05:16:43.851Z,43.7
2023-04-27T05:17:44.636Z,43.6
2023-04-27T05:18:45.642Z,43.7
2023-04-27T05:19:46.676Z,43.1
2023-04-27T05:20:47.883Z,43.6
2023-04-27T05:21:48.589Z,43.7
2023-04-27T05:22:49.755Z,43.8
2023-04-27T05:23:50.637Z,44.1
2023-04-27T05:24:51.647Z,43.6
2023-04-27T05:25:52.936Z,43
2023-04-27T05:26:53.789Z,42.7
2023-04-27T05:27:54.918Z,42.6
2023-04-27T05:28:56.340Z,42.7
2023-04-27T05:29:57.815Z,42.6
2023-04-27T05:30:58.736Z,42.6
2023-04-27T05:31:59.853Z,42.5
2023-04-27T05:33:00.782Z,42.6
2023-04-27T05:34:01.629Z,42.7
2023-04-27T05:35:02.697Z,42.3
2023-04-27T05:36:03.756Z,42.2
2023-04-27T05:37:05.503Z,42.5
2023-04-27T05:38:06.747Z,42.6
2023-04-27T05:39:07.833Z,42.7
2023-04-27T05:40:08.797Z,42.9
2023-04-27T05:41:09.681Z,42.9
2023-04-27T05:42:11.223Z,42.5
2023-04-27T05:43:12.708Z,42.7
2023-04-27T05:44:13.660Z,42
2023-04-27T05:45:14.767Z,42.7
2023-04-27T05:46:15.628Z,42.5
2023-04-27T05:47:16.597Z,42.1
2023-04-27T05:48:17.783Z,43.2
2023-04-27T05:49:18.612Z,43.6
2023-04-27T05:50:19.677Z,44.1
2023-04-27T05:51:20.723Z,43.3
2023-04-27T05:52:21.599Z,43.3
2023-04-27T05:53:22.682Z,43.6
2023-04-27T05:54:23.718Z,43.8
2023-04-27T05:55:24.797Z,42.6
2023-04-27T05:56:25.637Z,43
2023-04-27T05:57:26.613Z,42.3
2023-04-27T05:58:27.739Z,41.7
2023-04-27T05:59:28.627Z,41.5
2023-04-27T06:00:29.712Z,41.3
2023-04-27T06:01:30.887Z,41.3
2023-04-27T06:02:31.723Z,42
2023-04-27T06:03:32.844Z,41
2023-04-27T06:04:33.839Z,41.4
2023-04-27T06:05:34.709Z,41
2023-04-27T06:06:35.626Z,41
2023-04-27T06:07:36.783Z,41.4
2023-04-27T06:08:37.766Z,40.6
2023-04-27T06:09:39.079Z,41
2023-04-27T06:10:40.800Z,41.5
2023-04-27T06:11:41.678Z,41.6
2023-04-27T06:12:44.550Z,41.4
2023-04-27T06:13:44.698Z,40.8
2023-04-27T06:14:45.863Z,40.6
2023-04-27T06:15:46.869Z,41
2023-04-27T06:16:47.789Z,41.3
2023-04-27T06:17:48.760Z,41.4
2023-04-27T06:18:49.758Z,40.4
2023-04-27T06:19:50.668Z,40.3
2023-04-27T06:20:52.095Z,40.2
2023-04-27T06:21:53.899Z,40.4
2023-04-27T06:22:54.951Z,41.3
2023-04-27T06:23:55.778Z,40.3
2023-04-27T06:24:57.399Z,39.5
2023-04-27T06:25:58.677Z,39
2023-04-27T06:27:00.103Z,38.3
2023-04-27T06:28:00.663Z,37.5
2023-04-27T06:29:01.738Z,38.3
2023-04-27T06:30:02.723Z,38
2023-04-27T06:31:03.702Z,38.1
2023-04-27T06:32:04.850Z,37.9
2023-04-27T06:33:05.782Z,36.7
2023-04-27T06:34:06.742Z,37.2
2023-04-27T06:35:07.682Z,37.5
2023-04-27T06:36:08.589Z,37.3
2023-04-27T06:37:09.743Z,36.2
2023-04-27T06:38:10.667Z,36.3
2023-04-27T06:39:11.833Z,36.7
2023-04-27T06:40:12.842Z,36.4
2023-04-27T06:41:13.663Z,36.3
2023-04-27T06:42:14.809Z,35.2
2023-04-27T06:43:15.679Z,35
2023-04-27T06:44:17.423Z,34.8
2023-04-27T06:45:18.803Z,35.1
2023-04-27T06:46:19.787Z,34.7
2023-04-27T06:47:21.348Z,35.4
2023-04-27T06:48:22.757Z,35.2
2023-04-27T06:49:23.677Z,35.1
2023-04-27T06:50:24.766Z,35.5
2023-04-27T06:51:25.685Z,35.2
2023-04-27T06:52:26.719Z,34.8
2023-04-27T06:53:27.716Z,34
2023-04-27T06:54:28.695Z,34.2
2023-04-27T06:55:29.797Z,34.4
2023-04-27T06:56:30.718Z,34.8
2023-04-27T06:57:32.003Z,34
2023-04-27T06:58:32.748Z,33.5
2023-04-27T06:59:33.727Z,32.6
2023-04-27T07:00:34.730Z,33.1
2023-04-27T07:01:35.911Z,33.1
2023-04-27T07:02:36.842Z,33
2023-04-27T07:03:38.126Z,33.4
2023-04-27T07:04:39.054Z,33
2023-04-27T07:05:39.658Z,32.8
2023-04-27T07:06:40.786Z,32.5
2023-04-27T07:07:41.784Z,32.2
2023-04-27T07:08:42.733Z,32.2
2023-04-27T07:09:43.744Z,32.1
2023-04-27T07:10:44.717Z,32.1
2023-04-27T07:11:45.779Z,32.1
2023-04-27T07:12:46.900Z,32.4
2023-04-27T07:13:47.777Z,32.6
2023-04-27T07:14:48.761Z,33
2023-04-27T07:15:49.950Z,33.2
2023-04-27T07:16:50.719Z,32.7
2023-04-27T07:17:51.854Z,32.9
2023-04-27T07:18:52.778Z,32.9
2023-04-27T07:19:56.925Z,33.4
2023-04-27T07:20:57.869Z,33.4
2023-04-27T07:21:58.717Z,33.9
2023-04-27T07:22:59.839Z,34.1
2023-04-27T07:24:00.727Z,31.9
2023-04-27T07:25:01.698Z,30.9
2023-04-27T07:26:02.859Z,31.3
2023-04-27T07:27:03.782Z,31.4
2023-04-27T07:28:04.806Z,31.2
2023-04-27T07:29:11.421Z,31.4
2023-04-27T07:30:06.737Z,31.8
2023-04-27T07:31:07.920Z,31.7
2023-04-27T07:32:09.038Z,32.3
2023-04-27T07:33:09.817Z,32.2
2023-04-27T07:34:10.760Z,31.4
2023-04-27T07:35:11.800Z,30.8
2023-04-27T07:36:12.753Z,30.7
2023-04-27T07:37:14.125Z,30.5
2023-04-27T07:38:14.755Z,30.4
2023-04-27T07:39:15.993Z,30.9
2023-04-27T07:40:17.142Z,30.5
2023-04-27T07:41:18.729Z,30.1
2023-04-27T07:42:19.737Z,30.1
2023-04-27T07:43:20.750Z,29.8
2023-04-27T07:44:21.721Z,30
2023-04-27T07:45:23.387Z,28.4
2023-04-27T07:46:24.811Z,28.6
2023-04-27T07:47:25.757Z,28.8
2023-04-27T07:48:26.828Z,29.1
2023-04-27T07:49:27.695Z,29.8
2023-04-27T07:50:28.754Z,29
2023-04-27T07:51:29.720Z,28.2
2023-04-27T07:52:31.012Z,28.2
2023-04-27T07:53:31.759Z,28.9
2023-04-27T07:54:32.970Z,29.4
2023-04-27T07:55:33.793Z,29.4
2023-04-27T07:56:34.837Z,29.1
2023-04-27T07:57:35.870Z,28.7
2023-04-27T07:58:36.922Z,29.1
2023-04-27T07:59:37.801Z,29.6
2023-04-27T08:00:39.309Z,29
2023-04-27T08:01:41.486Z,28.5
2023-04-27T08:02:42.999Z,28.5
2023-04-27T08:03:43.858Z,28.4
2023-04-27T08:04:45.281Z,28.7
2023-04-27T08:05:46.315Z,28.8
2023-04-27T08:06:47.148Z,28.9
2023-04-27T08:07:47.899Z,29.1
2023-04-27T08:08:49.001Z,28.6
2023-04-27T08:09:49.813Z,28.1
2023-04-27T08:10:50.847Z,28.5
2023-04-27T08:11:51.745Z,28.6
2023-04-27T08:12:52.725Z,28.8
2023-04-27T08:13:53.766Z,28.5
2023-04-27T08:14:54.895Z,28.1
2023-04-27T08:15:55.959Z,28.3
2023-04-27T08:16:56.998Z,28.4
2023-04-27T08:17:57.821Z,28.5
2023-04-27T08:19:00.633Z,28.7
2023-04-27T08:20:00.777Z,29.4
2023-04-27T08:21:01.776Z,29.4
2023-04-27T08:22:02.744Z,29.5
2023-04-27T08:23:04.397Z,29.8
2023-04-27T08:24:05.934Z,29.8
2023-04-27T08:25:06.749Z,29.2
2023-04-27T08:26:07.897Z,29.2
2023-04-27T08:27:08.716Z,28.7
2023-04-27T08:28:10.211Z,28.1
2023-04-27T08:29:24.071Z,28.4
2023-04-27T08:30:12.796Z,29.4
2023-04-27T08:31:13.842Z,28.7
2023-04-27T08:32:14.815Z,28.4
2023-04-27T08:33:15.886Z,27.5
2023-04-27T08:34:16.838Z,28
2023-04-27T08:35:17.802Z,28.4
2023-04-27T08:36:18.765Z,28.4
2023-04-27T08:37:19.721Z,28.1
2023-04-27T08:38:20.776Z,27.6
2023-04-27T08:39:21.755Z,27.6
2023-04-27T08:40:22.813Z,27.4
2023-04-27T08:41:23.785Z,26.3
2023-04-27T08:42:24.712Z,26.4
2023-04-27T08:43:25.722Z,26.6
2023-04-27T08:44:26.697Z,27.3
2023-04-27T08:45:27.784Z,27.5
2023-04-27T08:46:28.883Z,28.1
2023-04-27T08:47:41.558Z,28.7
2023-04-27T08:48:30.814Z,29
2023-04-27T08:49:32.435Z,27.2
2023-04-27T08:50:33.900Z,26.6
2023-04-27T08:51:34.764Z,26.5
2023-04-27T08:52:36.560Z,27.6
2023-04-27T08:53:37.846Z,26.7
2023-04-27T08:54:38.796Z,27
2023-04-27T08:55:39.727Z,27.9
2023-04-27T08:56:40.881Z,28.3
2023-04-27T08:57:41.940Z,27.7
2023-04-27T08:58:42.917Z,27.7
2023-04-27T08:59:44.859Z,27.7
2023-04-27T09:00:46.078Z,28
2023-04-27T09:01:46.998Z,28.3
2023-04-27T09:02:48.187Z,28.4
2023-04-27T09:03:48.945Z,28.1
2023-04-27T09:04:49.885Z,28.1
2023-04-27T09:06:03.378Z,27
2023-04-27T09:06:52.891Z,26.8
2023-04-27T09:07:53.995Z,27.4
2023-04-27T09:08:54.758Z,27.5
2023-04-27T09:09:55.870Z,27.5
2023-04-27T09:10:57.448Z,27.8
2023-04-27T09:11:58.917Z,26.6
2023-04-27T09:12:59.825Z,26.7
2023-04-27T09:14:01.143Z,27.3
2023-04-27T09:15:02.593Z,26
2023-04-27T09:16:03.821Z,27.3
2023-04-27T09:17:04.779Z,27.8
2023-04-27T09:18:05.803Z,25.9
2023-04-27T09:19:06.843Z,26.6
2023-04-27T09:20:07.942Z,27.5
2023-04-27T09:21:08.796Z,26.6
2023-04-27T09:22:09.774Z,27.4
2023-04-27T09:23:10.766Z,27.6
2023-04-27T09:24:11.863Z,26.3
2023-04-27T09:25:12.755Z,25.6
2023-04-27T09:26:13.716Z,25.9
2023-04-27T09:27:14.840Z,26.9
2023-04-27T09:28:15.816Z,26.7
2023-04-27T09:29:16.783Z,27.7
2023-04-27T09:30:17.877Z,26.5
2023-04-27T09:31:18.930Z,26.3
2023-04-27T09:32:19.739Z,27.3
2023-04-27T09:33:20.862Z,27.5
2023-04-27T09:34:21.776Z,27.3
2023-04-27T09:35:22.905Z,26.8
2023-04-27T09:36:23.935Z,26
2023-04-27T09:37:25.036Z,26.8
2023-04-27T09:38:25.793Z,27.2
2023-04-27T09:39:26.875Z,26.9
2023-04-27T09:40:27.828Z,26.9
2023-04-27T09:41:28.779Z,27.2
2023-04-27T09:42:29.987Z,26.2
2023-04-27T09:43:30.816Z,27
2023-04-27T09:44:32.054Z,26.3
2023-04-27T09:45:32.845Z,25
2023-04-27T09:46:34.065Z,23.6
2023-04-27T09:47:34.982Z,23
2023-04-27T09:48:36.061Z,22.9
2023-04-27T09:49:37.457Z,24.2
2023-04-27T09:50:38.817Z,24.2
2023-04-27T09:51:39.856Z,24.7
2023-04-27T09:52:40.796Z,24.5
2023-04-27T09:53:42.254Z,24.4
2023-04-27T09:54:43.872Z,24.4
2023-04-27T09:55:44.835Z,24.4
2023-04-27T09:56:46.193Z,24.3
2023-04-27T09:57:47.918Z,24.7
2023-04-27T09:58:49.168Z,25.1
2023-04-27T09:59:50.815Z,25.3
2023-04-27T10:00:51.963Z,25.9
2023-04-27T10:01:53.074Z,26.2
2023-04-27T10:02:54.733Z,26.2
2023-04-27T10:03:56.100Z,26.6
2023-04-27T10:04:56.954Z,26.2
2023-04-27T10:05:57.827Z,26.8
2023-04-27T10:06:58.687Z,26.5
2023-04-27T10:07:59.834Z,26.9
2023-04-27T10:09:00.817Z,25.9
2023-04-27T10:10:01.819Z,24.5
2023-04-27T10:11:02.853Z,23.4
2023-04-27T10:12:03.839Z,22.7
2023-04-27T10:13:04.813Z,23.4
2023-04-27T10:14:05.793Z,24.7
2023-04-27T10:15:07.060Z,25.5
2023-04-27T10:16:07.912Z,24.5
2023-04-27T10:17:08.842Z,24.3
2023-04-27T10:18:09.808Z,24.6
2023-04-27T10:19:11.090Z,24.7
2023-04-27T10:20:11.861Z,23.6
2023-04-27T10:21:12.774Z,22.7
2023-04-27T10:22:13.813Z,22.6
2023-04-27T10:23:14.954Z,22.7
2023-04-27T10:24:15.918Z,23.2
2023-04-27T10:25:17.553Z,22.8
2023-04-27T10:26:18.922Z,23.1
2023-04-27T10:27:20.107Z,22.6
2023-04-27T10:28:20.887Z,21.3
2023-04-27T10:29:21.796Z,22.1
2023-04-27T10:30:23.006Z,22.6
2023-04-27T10:31:23.793Z,22.6
2023-04-27T10:32:24.771Z,22.8
2023-04-27T10:33:25.821Z,24.2
2023-04-27T10:34:26.904Z,24.6
2023-04-27T10:35:27.819Z,24.6
2023-04-27T10:36:28.797Z,23.9
2023-04-27T10:37:30.158Z,23.5
2023-04-27T10:38:34.012Z,23.5
2023-04-27T10:39:46.706Z,25
2023-04-27T10:40:36.949Z,24.5
2023-04-27T10:41:37.839Z,23.5
2023-04-27T10:42:38.861Z,24.2
2023-04-27T10:43:39.840Z,23.8
2023-04-27T10:44:40.839Z,23.8
2023-04-27T10:45:41.960Z,24.3
2023-04-27T10:46:43.381Z,23.8
2023-04-27T10:47:45.943Z,24.4
2023-04-27T10:48:47.119Z,24.6
2023-04-27T10:49:47.827Z,25.3
2023-04-27T10:50:48.963Z,25.2
2023-04-27T10:51:49.908Z,24.7
2023-04-27T10:52:50.944Z,25
2023-04-27T10:53:51.799Z,24.8
2023-04-27T10:54:52.840Z,25.8
2023-04-27T10:55:53.960Z,25.5
2023-04-27T10:56:54.885Z,25.4
2023-04-27T10:57:55.852Z,25.3
2023-04-27T10:58:56.864Z,25.6
2023-04-27T10:59:58.462Z,26.8
2023-04-27T11:00:59.979Z,25.9
2023-04-27T11:02:01.339Z,25.5
2023-04-27T11:03:01.901Z,25.7
2023-04-27T11:04:02.913Z,25.4
2023-04-27T11:05:03.945Z,25.5
2023-04-27T11:06:05.040Z,26.2
2023-04-27T11:07:06.080Z,26.3
2023-04-27T11:08:07.779Z,26.6
2023-04-27T11:09:08.878Z,27.1
2023-04-27T11:10:10.179Z,26.7
2023-04-27T11:11:10.919Z,26.8
2023-04-27T11:12:11.904Z,26.4
2023-04-27T11:13:12.987Z,26.5
2023-04-27T11:14:13.969Z,27
2023-04-27T11:15:14.897Z,26.8
2023-04-27T11:16:15.889Z,26.7
2023-04-27T11:17:16.838Z,27.8
2023-04-27T11:18:17.938Z,27.2
2023-04-27T11:19:19.296Z,27.2
2023-04-27T11:20:21.806Z,27.2
2023-04-27T11:21:22.862Z,27.7
2023-04-27T11:22:23.826Z,27.8
2023-04-27T11:23:24.838Z,27.7
2023-04-27T11:24:26.295Z,27.1
2023-04-27T11:25:27.881Z,26.8
2023-04-27T11:26:29.844Z,26.2
2023-04-27T11:27:30.956Z,26.7
2023-04-27T11:28:31.928Z,27.1
2023-04-27T11:29:34.534Z,26.3
2023-04-27T11:30:34.340Z,25.1
2023-04-27T11:31:36.118Z,24.2
2023-04-27T11:32:37.316Z,24.1
2023-04-27T11:33:38.978Z,25.8
2023-04-27T11:34:39.919Z,25.5
2023-04-27T11:35:41.036Z,25.4
2023-04-27T11:36:42.769Z,26.1
2023-04-27T11:37:43.859Z,26.6
2023-04-27T11:38:44.856Z,26.3
2023-04-27T11:39:45.997Z,26.3
2023-04-27T11:40:46.900Z,25.5
2023-04-27T11:41:47.889Z,24.8
2023-04-27T11:42:49.022Z,24.9
2023-04-27T11:43:49.922Z,25.5
2023-04-27T11:44:50.879Z,25.7
2023-04-27T11:45:51.898Z,25.4
2023-04-27T11:46:52.963Z,25.8
2023-04-27T11:47:54.117Z,25.8
2023-04-27T11:48:55.278Z,24.7
2023-04-27T11:49:57.370Z,24
2023-04-27T11:50:59.617Z,23.4
2023-04-27T11:52:00.911Z,23.6
2023-04-27T11:53:01.932Z,23.7
2023-04-27T11:54:02.825Z,23.4
2023-04-27T11:55:04.709Z,23.9
2023-04-27T11:56:05.924Z,22.6
2023-04-27T11:57:06.879Z,22.4
2023-04-27T11:58:08.068Z,22.3
2023-04-27T11:59:08.800Z,22.2
2023-04-27T12:00:09.980Z,23.5
2023-04-27T12:01:10.919Z,24.3
2023-04-27T12:02:11.969Z,24.2
2023-04-27T12:03:13.131Z,24.6
2023-04-27T12:04:14.516Z,25
2023-04-27T12:05:15.034Z,24.8
2023-04-27T12:06:32.076Z,24.4
2023-04-27T12:07:17.439Z,25.1
2023-04-27T12:08:19.060Z,25
2023-04-27T12:09:19.925Z,25.8
2023-04-27T12:10:20.938Z,25.1
2023-04-27T12:11:21.904Z,25
2023-04-27T12:12:23.145Z,24.4
2023-04-27T12:13:23.882Z,24.3
2023-04-27T12:14:24.988Z,24.4
2023-04-27T12:15:26.009Z,24
2023-04-27T12:16:27.080Z,23.8
2023-04-27T12:17:27.922Z,24.3
2023-04-27T12:18:28.903Z,24.8
2023-04-27T12:19:29.881Z,25.6
2023-04-27T12:20:30.924Z,25.4
2023-04-27T12:21:31.926Z,25.5
2023-04-27T12:22:32.917Z,25
2023-04-27T12:23:33.861Z,24.7
2023-04-27T12:24:34.998Z,24.7
2023-04-27T12:25:35.818Z,25.2
2023-04-27T12:26:36.999Z,24.4
2023-04-27T12:27:37.998Z,23.4
2023-04-27T12:28:38.961Z,22.7
2023-04-27T12:29:39.996Z,22.3
2023-04-27T12:30:41.053Z,21.9
2023-04-27T12:31:42.080Z,21.2
2023-04-27T12:32:43.031Z,21
2023-04-27T12:33:43.835Z,21.5
2023-04-27T12:34:44.878Z,22.2
2023-04-27T12:35:45.863Z,22.4
2023-04-27T12:36:47.243Z,22.3
2023-04-27T12:37:47.957Z,22.3
2023-04-27T12:38:48.857Z,21.9
2023-04-27T12:39:49.963Z,20.9
2023-04-27T12:40:52.159Z,20.8
2023-04-27T12:41:52.801Z,20.7
2023-04-27T12:42:54.277Z,20
2023-04-27T12:43:54.891Z,19.8
2023-04-27T12:44:56.037Z,20.4
2023-04-27T12:45:56.992Z,20.5
2023-04-27T12:46:57.989Z,19.2
2023-04-27T12:48:03.705Z,18.7
2023-04-27T12:49:00.082Z,19.3
2023-04-27T12:50:00.846Z,20
2023-04-27T12:51:01.886Z,19.3
2023-04-27T12:52:02.950Z,20.8
2023-04-27T12:53:04.248Z,21.3
2023-04-27T12:54:04.936Z,21
2023-04-27T12:55:06.085Z,20.3
2023-04-27T12:56:06.931Z,19.3
2023-04-27T12:57:07.963Z,19.3
2023-04-27T12:58:09.053Z,19.3
2023-04-27T12:59:10.058Z,19.2
2023-04-27T13:00:14.167Z,19.5
2023-04-27T13:01:15.262Z,19.5
2023-04-27T13:02:15.881Z,20.3
2023-04-27T13:03:17.069Z,18.8
2023-04-27T13:04:18.307Z,18.7
2023-04-27T13:05:19.059Z,18.4
2023-04-27T13:06:20.116Z,17.9
2023-04-27T13:07:20.924Z,18.3
2023-04-27T13:08:22.154Z,18.4
2023-04-27T13:09:23.415Z,18.4
2023-04-27T13:10:25.318Z,20.7
2023-04-27T13:11:26.900Z,19.4
2023-04-27T13:12:27.987Z,19.6
2023-04-27T13:13:28.875Z,18.8
2023-04-27T13:14:30.074Z,18.2
2023-04-27T13:15:31.393Z,18.1
2023-04-27T13:16:33.137Z,18.4
2023-04-27T13:17:34.881Z,19.4
2023-04-27T13:18:36.294Z,19.1
2023-04-27T13:19:38.136Z,20.5
2023-04-27T13:20:39.074Z,20.9
2023-04-27T13:21:40.035Z,21.9
2023-04-27T13:22:41.115Z,23.3
2023-04-27T13:23:42.100Z,24
2023-04-27T13:24:43.026Z,24.4
2023-04-27T13:25:43.880Z,24.8
2023-04-27T13:26:45.036Z,25.3
2023-04-27T13:27:46.055Z,25.8
2023-04-27T13:28:47.096Z,26
2023-04-27T13:29:48.872Z,26.1
2023-04-27T13:30:50.124Z,26.3
2023-04-27T13:31:51.081Z,26.9
2023-04-27T13:32:52.200Z,27
2023-04-27T13:33:52.951Z,27.9
2023-04-27T13:34:53.933Z,28
2023-04-27T13:35:54.999Z,27.4
2023-04-27T13:36:55.935Z,27.5
2023-04-27T13:37:57.918Z,27.9